sensor_id;sensor_type;location;lat;lon;timestamp;pressure;altitude;pressure_sealevel;temperature;humidity
50550;BME280;36505;52.512;13.460;2023-08-08T00:01:06;100423.00;;;14.11;68.50
50550;BME280;36505;52.512;13.460;2023-08-08T00:03:32;100430.13;;;14.07;67.91
50550;BME280;36505;52.512;13.460;2023-08-08T00:05:57;100414.19;;;13.99;68.55
50550;BME280;36505;52.512;13.460;2023-08-08T00:08:22;100420.25;;;13.96;68.77
50550;BME280;36505;52.512;13.460;2023-08-08T00:10:48;100413.06;;;13.95;68.67
50550;BME280;36505;52.512;13.460;2023-08-08T00:13:13;100404.00;;;13.89;68.77
50550;BME280;36505;52.512;13.460;2023-08-08T00:15:38;100403.19;;;13.83;69.10
50550;BME280;36505;52.512;13.460;2023-08-08T00:18:04;100411.44;;;13.83;69.21
50550;BME280;36505;52.512;13.460;2023-08-08T00:20:30;100407.03;;;13.82;69.44
50550;BME280;36505;52.512;13.460;2023-08-08T00:22:55;100412.22;;;13.79;69.69
50550;BME280;36505;52.512;13.460;2023-08-08T00:25:20;100418.56;;;13.74;70.29
50550;BME280;36505;52.512;13.460;2023-08-08T00:27:46;100427.91;;;13.73;70.80
50550;BME280;36505;52.512;13.460;2023-08-08T00:30:12;100415.81;;;13.64;70.75
50550;BME280;36505;52.512;13.460;2023-08-08T00:32:38;100424.34;;;13.68;71.11
50550;BME280;36505;52.512;13.460;2023-08-08T00:35:04;100431.75;;;13.67;71.26
50550;BME280;36505;52.512;13.460;2023-08-08T00:37:29;100428.44;;;13.65;71.34
50550;BME280;36505;52.512;13.460;2023-08-08T00:39:55;100430.09;;;13.61;71.25
50550;BME280;36505;52.512;13.460;2023-08-08T00:42:20;100433.69;;;13.57;71.86
50550;BME280;36505;52.512;13.460;2023-08-08T00:44:45;100438.34;;;13.56;71.78
50550;BME280;36505;52.512;13.460;2023-08-08T00:47:11;100437.78;;;13.49;71.79
50550;BME280;36505;52.512;13.460;2023-08-08T00:49:37;100441.63;;;13.48;71.91
50550;BME280;36505;52.512;13.460;2023-08-08T00:52:03;100427.31;;;13.46;71.65
50550;BME280;36505;52.512;13.460;2023-08-08T00:54:29;100435.03;;;13.49;71.60
50550;BME280;36505;52.512;13.460;2023-08-08T00:56:55;100429.53;;;13.49;71.43
50550;BME280;36505;52.512;13.460;2023-08-08T00:59:21;100436.66;;;13.45;71.67
50550;BME280;36505;52.512;13.460;2023-08-08T01:01:46;100439.69;;;13.43;71.63
50550;BME280;36505;52.512;13.460;2023-08-08T01:04:12;100424.81;;;13.39;71.55
50550;BME280;36505;52.512;13.460;2023-08-08T01:06:43;100426.72;;;13.39;71.85
50550;BME280;36505;52.512;13.460;2023-08-08T01:09:28;100436.66;;;13.40;71.63
50550;BME280;36505;52.512;13.460;2023-08-08T01:11:55;100434.97;;;13.34;72.06
50550;BME280;36505;52.512;13.460;2023-08-08T01:14:23;100431.13;;;13.35;71.32
50550;BME280;36505;52.512;13.460;2023-08-08T01:16:50;100441.56;;;13.33;71.31
50550;BME280;36505;52.512;13.460;2023-08-08T01:19:25;100433.31;;;13.28;71.79
50550;BME280;36505;52.512;13.460;2023-08-08T01:21:58;100439.06;;;13.26;72.05
50550;BME280;36505;52.512;13.460;2023-08-08T01:24:26;100435.75;;;13.24;71.73
50550;BME280;36505;52.512;13.460;2023-08-08T01:26:54;100438.22;;;13.21;72.14
50550;BME280;36505;52.512;13.460;2023-08-08T01:29:20;100437.66;;;13.19;72.16
50550;BME280;36505;52.512;13.460;2023-08-08T01:31:45;100427.16;;;13.11;71.74
50550;BME280;36505;52.512;13.460;2023-08-08T01:34:11;100437.88;;;13.12;71.93
50550;BME280;36505;52.512;13.460;2023-08-08T01:37:07;100432.09;;;13.09;72.41
50550;BME280;36505;52.512;13.460;2023-08-08T01:39:34;100432.63;;;13.05;72.39
50550;BME280;36505;52.512;13.460;2023-08-08T01:42:00;100423.03;;;13.03;72.63
50550;BME280;36505;52.512;13.460;2023-08-08T01:44:26;100421.63;;;13.05;71.98
50550;BME280;36505;52.512;13.460;2023-08-08T01:46:53;100425.22;;;13.06;72.58
50550;BME280;36505;52.512;13.460;2023-08-08T01:49:18;100417.28;;;13.10;71.74
50550;BME280;36505;52.512;13.460;2023-08-08T01:51:44;100427.69;;;13.07;71.69
50550;BME280;36505;52.512;13.460;2023-08-08T01:54:09;100427.97;;;13.06;71.94
50550;BME280;36505;52.512;13.460;2023-08-08T01:56:35;100431.81;;;13.05;70.79
50550;BME280;36505;52.512;13.460;2023-08-08T01:59:00;100418.06;;;13.05;71.33
50550;BME280;36505;52.512;13.460;2023-08-08T02:01:26;100415.31;;;13.05;70.97
50550;BME280;36505;52.512;13.460;2023-08-08T02:03:51;100412.31;;;13.06;71.00
50550;BME280;36505;52.512;13.460;2023-08-08T02:06:17;100403.53;;;13.10;71.06
50550;BME280;36505;52.512;13.460;2023-08-08T02:08:42;100414.22;;;13.11;70.36
50550;BME280;36505;52.512;13.460;2023-08-08T02:11:07;100399.66;;;13.11;70.58
50550;BME280;36505;52.512;13.460;2023-08-08T02:13:33;100396.97;;;13.16;70.07
50550;BME280;36505;52.512;13.460;2023-08-08T02:15:58;100387.34;;;13.13;70.11
50550;BME280;36505;52.512;13.460;2023-08-08T02:18:23;100395.31;;;13.15;69.60
50550;BME280;36505;52.512;13.460;2023-08-08T02:20:49;100400.25;;;13.13;69.60
50550;BME280;36505;52.512;13.460;2023-08-08T02:23:14;100395.59;;;13.13;69.71
50550;BME280;36505;52.512;13.460;2023-08-08T02:25:39;100402.75;;;13.14;69.61
50550;BME280;36505;52.512;13.460;2023-08-08T02:28:05;100402.47;;;13.16;69.63
50550;BME280;36505;52.512;13.460;2023-08-08T02:30:30;100396.41;;;13.14;70.13
50550;BME280;36505;52.512;13.460;2023-08-08T02:32:56;100387.34;;;13.13;69.52
50550;BME280;36505;52.512;13.460;2023-08-08T02:35:21;100392.00;;;13.13;69.95
50550;BME280;36505;52.512;13.460;2023-08-08T02:37:47;100395.28;;;13.10;70.04
50550;BME280;36505;52.512;13.460;2023-08-08T02:40:12;100393.34;;;13.10;70.76
50550;BME280;36505;52.512;13.460;2023-08-08T02:42:38;100394.75;;;13.13;70.42
50550;BME280;36505;52.512;13.460;2023-08-08T02:45:04;100387.81;;;13.05;70.43
50550;BME280;36505;52.512;13.460;2023-08-08T02:47:29;100384.22;;;12.94;71.01
50550;BME280;36505;52.512;13.460;2023-08-08T02:49:54;100395.78;;;13.01;71.50
50550;BME280;36505;52.512;13.460;2023-08-08T02:52:20;100396.88;;;13.00;71.70
50550;BME280;36505;52.512;13.460;2023-08-08T02:54:45;100388.59;;;12.90;71.96
50550;BME280;36505;52.512;13.460;2023-08-08T02:57:11;100397.66;;;12.91;72.46
50550;BME280;36505;52.512;13.460;2023-08-08T02:59:37;100401.81;;;12.93;72.92
50550;BME280;36505;52.512;13.460;2023-08-08T03:02:02;100397.66;;;12.91;72.79
50550;BME280;36505;52.512;13.460;2023-08-08T03:04:28;100400.97;;;12.93;73.41
50550;BME280;36505;52.512;13.460;2023-08-08T03:06:54;100391.91;;;12.92;73.48
50550;BME280;36505;52.512;13.460;2023-08-08T03:09:19;100394.06;;;12.90;73.26
50550;BME280;36505;52.512;13.460;2023-08-08T03:11:45;100394.06;;;12.85;73.78
50550;BME280;36505;52.512;13.460;2023-08-08T03:14:10;100397.66;;;12.86;73.97
50550;BME280;36505;52.512;13.460;2023-08-08T03:16:36;100387.22;;;12.83;73.99
50550;BME280;36505;52.512;13.460;2023-08-08T03:19:01;100392.13;;;12.81;74.27
50550;BME280;36505;52.512;13.460;2023-08-08T03:21:27;100383.88;;;12.81;74.58
50550;BME280;36505;52.512;13.460;2023-08-08T03:23:53;100389.06;;;12.77;74.91
50550;BME280;36505;52.512;13.460;2023-08-08T03:26:19;100390.47;;;12.75;75.26
50550;BME280;36505;52.512;13.460;2023-08-08T03:28:44;100397.31;;;12.77;75.20
50550;BME280;36505;52.512;13.460;2023-08-08T03:31:10;100397.59;;;12.76;75.40
50550;BME280;36505;52.512;13.460;2023-08-08T03:33:35;100398.97;;;12.78;75.46
50550;BME280;36505;52.512;13.460;2023-08-08T03:36:00;100398.47;;;12.81;75.42
50550;BME280;36505;52.512;13.460;2023-08-08T03:38:26;100393.50;;;12.83;75.44
50550;BME280;36505;52.512;13.460;2023-08-08T03:40:51;100399.00;;;12.83;75.85
50550;BME280;36505;52.512;13.460;2023-08-08T03:43:17;100384.47;;;12.83;75.96
50550;BME280;36505;52.512;13.460;2023-08-08T03:45:42;100399.56;;;12.85;75.62
50550;BME280;36505;52.512;13.460;2023-08-08T03:48:09;100393.22;;;12.80;75.89
50550;BME280;36505;52.512;13.460;2023-08-08T03:50:34;100398.97;;;12.78;76.26
50550;BME280;36505;52.512;13.460;2023-08-08T03:52:59;100401.47;;;12.80;76.66
50550;BME280;36505;52.512;13.460;2023-08-08T03:55:25;100396.53;;;12.82;76.25
50550;BME280;36505;52.512;13.460;2023-08-08T03:57:50;100406.72;;;12.86;76.48
50550;BME280;36505;52.512;13.460;2023-08-08T04:00:16;100405.06;;;12.90;76.49
50550;BME280;36505;52.512;13.460;2023-08-08T04:02:42;100403.47;;;12.94;76.59
50550;BME280;36505;52.512;13.460;2023-08-08T04:05:08;100391.91;;;12.97;76.38
50550;BME280;36505;52.512;13.460;2023-08-08T04:07:34;100406.22;;;12.99;76.41
50550;BME280;36505;52.512;13.460;2023-08-08T04:09:59;100396.34;;;13.03;76.24
50550;BME280;36505;52.512;13.460;2023-08-08T04:12:24;100394.97;;;13.06;76.26
50550;BME280;36505;52.512;13.460;2023-08-08T04:14:50;100398.56;;;13.12;76.28
50550;BME280;36505;52.512;13.460;2023-08-08T04:17:15;100398.91;;;13.15;76.00
50550;BME280;36505;52.512;13.460;2023-08-08T04:19:40;100392.03;;;13.18;76.22
50550;BME280;36505;52.512;13.460;2023-08-08T04:22:06;100398.34;;;13.18;75.81
50550;BME280;36505;52.512;13.460;2023-08-08T04:24:31;100390.41;;;13.22;76.38
50550;BME280;36505;52.512;13.460;2023-08-08T04:26:57;100399.22;;;13.29;75.76
50550;BME280;36505;52.512;13.460;2023-08-08T04:29:22;100388.75;;;13.31;75.91
50550;BME280;36505;52.512;13.460;2023-08-08T04:31:47;100385.47;;;13.34;75.63
50550;BME280;36505;52.512;13.460;2023-08-08T04:34:13;100379.97;;;13.34;75.77
50550;BME280;36505;52.512;13.460;2023-08-08T04:36:38;100385.75;;;13.37;75.69
50550;BME280;36505;52.512;13.460;2023-08-08T04:39:03;100395.94;;;13.42;75.48
50550;BME280;36505;52.512;13.460;2023-08-08T04:41:29;100394.31;;;13.46;75.79
50550;BME280;36505;52.512;13.460;2023-08-08T04:43:54;100397.63;;;13.53;75.19
50550;BME280;36505;52.512;13.460;2023-08-08T04:46:20;100388.53;;;13.53;75.21
50550;BME280;36505;52.512;13.460;2023-08-08T04:48:45;100394.31;;;13.51;75.52
50550;BME280;36505;52.512;13.460;2023-08-08T04:51:10;100391.03;;;13.54;75.38
50550;BME280;36505;52.512;13.460;2023-08-08T04:53:36;100399.00;;;13.56;75.27
50550;BME280;36505;52.512;13.460;2023-08-08T04:56:01;100395.44;;;13.60;75.40
50550;BME280;36505;52.512;13.460;2023-08-08T04:58:27;100399.31;;;13.64;75.21
50550;BME280;36505;52.512;13.460;2023-08-08T05:00:52;100388.03;;;13.71;75.08
50550;BME280;36505;52.512;13.460;2023-08-08T05:03:17;100396.03;;;13.77;74.86
50550;BME280;36505;52.512;13.460;2023-08-08T05:05:43;100394.66;;;13.85;75.04
50550;BME280;36505;52.512;13.460;2023-08-08T05:08:10;100397.13;;;13.92;74.23
50550;BME280;36505;52.512;13.460;2023-08-08T05:10:36;100402.91;;;13.95;73.72
50550;BME280;36505;52.512;13.460;2023-08-08T05:13:01;100390.50;;;13.93;74.05
50550;BME280;36505;52.512;13.460;2023-08-08T05:15:27;100395.72;;;13.94;74.07
50550;BME280;36505;52.512;13.460;2023-08-08T05:17:52;100395.47;;;13.96;74.03
50550;BME280;36505;52.512;13.460;2023-08-08T05:20:20;100400.13;;;14.00;74.09
50550;BME280;36505;52.512;13.460;2023-08-08T05:22:46;100400.41;;;14.09;74.02
50550;BME280;36505;52.512;13.460;2023-08-08T05:25:12;100399.31;;;14.15;73.50
50550;BME280;36505;52.512;13.460;2023-08-08T05:27:37;100395.19;;;14.22;73.30
50550;BME280;36505;52.512;13.460;2023-08-08T05:30:03;100405.09;;;14.23;73.16
50550;BME280;36505;52.512;13.460;2023-08-08T05:32:29;100395.47;;;14.26;73.05
50550;BME280;36505;52.512;13.460;2023-08-08T05:34:55;100400.38;;;14.34;73.01
50550;BME280;36505;52.512;13.460;2023-08-08T05:37:22;100394.91;;;14.44;72.78
50550;BME280;36505;52.512;13.460;2023-08-08T05:39:47;100390.19;;;14.55;72.28
50550;BME280;36505;52.512;13.460;2023-08-08T05:42:12;100395.13;;;14.63;71.90
50550;BME280;36505;52.512;13.460;2023-08-08T05:44:38;100396.47;;;14.76;71.30
50550;BME280;36505;52.512;13.460;2023-08-08T05:47:03;100393.13;;;14.89;71.47
50550;BME280;36505;52.512;13.460;2023-08-08T05:49:29;100402.13;;;15.10;70.86
50550;BME280;36505;52.512;13.460;2023-08-08T05:51:54;100400.41;;;15.24;69.94
50550;BME280;36505;52.512;13.460;2023-08-08T05:54:19;100398.44;;;15.29;69.87
50550;BME280;36505;52.512;13.460;2023-08-08T05:56:45;100399.59;;;15.28;69.69
50550;BME280;36505;52.512;13.460;2023-08-08T05:59:11;100391.91;;;15.20;69.74
50550;BME280;36505;52.512;13.460;2023-08-08T06:01:36;100391.91;;;15.20;69.97
50550;BME280;36505;52.512;13.460;2023-08-08T06:04:02;100388.88;;;15.17;70.77
50550;BME280;36505;52.512;13.460;2023-08-08T06:06:28;100387.50;;;15.14;70.17
50550;BME280;36505;52.512;13.460;2023-08-08T06:08:54;100399.63;;;15.18;70.09
50550;BME280;36505;52.512;13.460;2023-08-08T06:11:19;100409.22;;;15.31;69.76
50550;BME280;36505;52.512;13.460;2023-08-08T06:13:46;100404.72;;;15.45;69.21
50550;BME280;36505;52.512;13.460;2023-08-08T06:16:11;100402.50;;;15.47;68.86
50550;BME280;36505;52.512;13.460;2023-08-08T06:18:37;100406.59;;;15.50;69.33
50550;BME280;36505;52.512;13.460;2023-08-08T06:21:02;100399.47;;;15.54;69.37
50550;BME280;36505;52.512;13.460;2023-08-08T06:23:28;100397.44;;;15.64;68.46
50550;BME280;36505;52.512;13.460;2023-08-08T06:25:53;100405.78;;;15.59;68.93
50550;BME280;36505;52.512;13.460;2023-08-08T06:28:19;100401.06;;;15.60;69.17
50550;BME280;36505;52.512;13.460;2023-08-08T06:30:44;100393.88;;;15.64;69.41
50550;BME280;36505;52.512;13.460;2023-08-08T06:33:10;100404.31;;;15.72;69.01
50550;BME280;36505;52.512;13.460;2023-08-08T06:35:35;100391.00;;;15.79;69.14
50550;BME280;36505;52.512;13.460;2023-08-08T06:38:01;100392.28;;;15.92;68.75
50550;BME280;36505;52.512;13.460;2023-08-08T06:40:26;100388.41;;;15.93;68.08
50550;BME280;36505;52.512;13.460;2023-08-08T06:42:52;100395.88;;;15.92;68.36
50550;BME280;36505;52.512;13.460;2023-08-08T06:45:17;100399.78;;;15.86;68.57
50550;BME280;36505;52.512;13.460;2023-08-08T06:47:43;100390.38;;;15.87;69.27
50550;BME280;36505;52.512;13.460;2023-08-08T06:50:09;100393.66;;;15.94;68.59
50550;BME280;36505;52.512;13.460;2023-08-08T06:52:34;100402.53;;;15.86;68.55
50550;BME280;36505;52.512;13.460;2023-08-08T06:55:00;100402.81;;;15.85;68.86
50550;BME280;36505;52.512;13.460;2023-08-08T06:57:26;100393.19;;;15.82;68.77
50550;BME280;36505;52.512;13.460;2023-08-08T06:59:51;100400.28;;;15.93;68.68
50550;BME280;36505;52.512;13.460;2023-08-08T07:02:20;100407.66;;;16.03;68.38
50550;BME280;36505;52.512;13.460;2023-08-08T07:04:46;100392.59;;;16.19;67.19
50550;BME280;36505;52.512;13.460;2023-08-08T07:07:11;100397.28;;;16.24;67.20
50550;BME280;36505;52.512;13.460;2023-08-08T07:09:37;100402.41;;;16.35;67.02
50550;BME280;36505;52.512;13.460;2023-08-08T07:12:03;100403.66;;;16.48;66.53
50550;BME280;36505;52.512;13.460;2023-08-08T07:14:29;100403.03;;;16.56;66.09
50550;BME280;36505;52.512;13.460;2023-08-08T07:16:54;100411.84;;;16.63;65.49
50550;BME280;36505;52.512;13.460;2023-08-08T07:19:21;100408.56;;;16.85;64.97
50550;BME280;36505;52.512;13.460;2023-08-08T07:21:46;100408.53;;;17.09;64.35
50550;BME280;36505;52.512;13.460;2023-08-08T07:24:12;100412.13;;;17.33;63.93
50550;BME280;36505;52.512;13.460;2023-08-08T07:26:37;100406.75;;;17.60;63.46
50550;BME280;36505;52.512;13.460;2023-08-08T07:29:03;100412.59;;;17.77;61.85
50550;BME280;36505;52.512;13.460;2023-08-08T07:31:31;100404.59;;;17.76;61.48
50550;BME280;36505;52.512;13.460;2023-08-08T07:33:56;100407.19;;;17.67;62.39
50550;BME280;36505;52.512;13.460;2023-08-08T07:36:22;100413.06;;;17.66;62.17
50550;BME280;36505;52.512;13.460;2023-08-08T07:38:47;100406.88;;;17.50;62.41
50550;BME280;36505;52.512;13.460;2023-08-08T07:41:13;100402.47;;;17.49;62.46
50550;BME280;36505;52.512;13.460;2023-08-08T07:43:38;100405.13;;;17.78;61.09
50550;BME280;36505;52.512;13.460;2023-08-08T07:46:03;100406.97;;;18.01;60.58
50550;BME280;36505;52.512;13.460;2023-08-08T07:48:29;100401.59;;;18.24;59.09
50550;BME280;36505;52.512;13.460;2023-08-08T07:50:54;100399.28;;;18.44;58.55
50550;BME280;36505;52.512;13.460;2023-08-08T07:53:20;100401.94;;;18.49;58.56
50550;BME280;36505;52.512;13.460;2023-08-08T07:55:45;100404.44;;;18.51;58.36
50550;BME280;36505;52.512;13.460;2023-08-08T07:58:10;100399.91;;;18.41;58.83
50550;BME280;36505;52.512;13.460;2023-08-08T08:00:36;100405.44;;;18.41;58.69
50550;BME280;36505;52.512;13.460;2023-08-08T08:03:03;100406.38;;;18.50;58.43
50550;BME280;36505;52.512;13.460;2023-08-08T08:05:29;100405.19;;;18.70;57.67
50550;BME280;36505;52.512;13.460;2023-08-08T08:07:54;100415.28;;;18.80;57.54
50550;BME280;36505;52.512;13.460;2023-08-08T08:10:20;100410.16;;;18.73;57.54
50550;BME280;36505;52.512;13.460;2023-08-08T08:12:45;100400.72;;;19.02;56.85
50550;BME280;36505;52.512;13.460;2023-08-08T08:15:11;100405.50;;;19.37;55.80
50550;BME280;36505;52.512;13.460;2023-08-08T08:17:37;100397.22;;;19.73;55.50
50550;BME280;36505;52.512;13.460;2023-08-08T08:20:03;100386.44;;;19.94;54.71
50550;BME280;36505;52.512;13.460;2023-08-08T08:22:36;100386.50;;;20.25;53.26
50550;BME280;36505;52.512;13.460;2023-08-08T08:25:02;100395.78;;;20.42;52.75
50550;BME280;36505;52.512;13.460;2023-08-08T08:27:27;100390.34;;;20.60;52.13
50550;BME280;36505;52.512;13.460;2023-08-08T08:29:53;100392.00;;;20.69;51.88
50550;BME280;36505;52.512;13.460;2023-08-08T08:32:18;100385.59;;;21.00;51.60
50550;BME280;36505;52.512;13.460;2023-08-08T08:34:43;100386.22;;;21.53;50.70
50550;BME280;36505;52.512;13.460;2023-08-08T08:37:09;100380.03;;;21.99;49.77
50550;BME280;36505;52.512;13.460;2023-08-08T08:39:35;100382.75;;;22.25;48.24
50550;BME280;36505;52.512;13.460;2023-08-08T08:42:00;100385.53;;;22.42;47.09
50550;BME280;36505;52.512;13.460;2023-08-08T08:44:30;100386.59;;;22.67;47.17
50550;BME280;36505;52.512;13.460;2023-08-08T08:46:59;100386.34;;;22.52;46.18
50550;BME280;36505;52.512;13.460;2023-08-08T08:49:28;100381.00;;;21.95;46.91
50550;BME280;36505;52.512;13.460;2023-08-08T08:51:55;100389.19;;;21.65;47.71
50550;BME280;36505;52.512;13.460;2023-08-08T08:54:21;100381.97;;;21.82;48.36
50550;BME280;36505;52.512;13.460;2023-08-08T08:56:47;100385.09;;;22.15;48.39
50550;BME280;36505;52.512;13.460;2023-08-08T08:59:13;100377.16;;;22.51;46.12
50550;BME280;36505;52.512;13.460;2023-08-08T09:01:39;100394.84;;;22.64;46.32
50550;BME280;36505;52.512;13.460;2023-08-08T09:04:05;100392.59;;;22.31;46.20
50550;BME280;36505;52.512;13.460;2023-08-08T09:06:32;100384.72;;;22.33;46.78
50550;BME280;36505;52.512;13.460;2023-08-08T09:08:58;100379.66;;;22.18;47.58
50550;BME280;36505;52.512;13.460;2023-08-08T09:11:23;100385.84;;;22.41;47.34
50550;BME280;36505;52.512;13.460;2023-08-08T09:13:48;100378.13;;;22.93;46.66
50550;BME280;36505;52.512;13.460;2023-08-08T09:16:14;100379.13;;;22.97;45.04
50550;BME280;36505;52.512;13.460;2023-08-08T09:18:39;100379.63;;;22.99;45.64
50550;BME280;36505;52.512;13.460;2023-08-08T09:21:07;100385.19;;;22.99;45.34
50550;BME280;36505;52.512;13.460;2023-08-08T09:23:32;100376.81;;;22.99;44.49
50550;BME280;36505;52.512;13.460;2023-08-08T09:25:58;100368.19;;;22.83;44.86
50550;BME280;36505;52.512;13.460;2023-08-08T09:28:24;100364.94;;;22.73;45.82
50550;BME280;36505;52.512;13.460;2023-08-08T09:30:50;100369.41;;;22.57;45.67
50550;BME280;36505;52.512;13.460;2023-08-08T09:33:17;100360.81;;;22.15;46.34
50550;BME280;36505;52.512;13.460;2023-08-08T09:35:43;100363.78;;;22.10;46.23
50550;BME280;36505;52.512;13.460;2023-08-08T09:38:08;100361.66;;;22.07;46.21
50550;BME280;36505;52.512;13.460;2023-08-08T09:40:34;100369.03;;;22.03;46.63
50550;BME280;36505;52.512;13.460;2023-08-08T09:42:59;100341.81;;;22.00;46.12
50550;BME280;36505;52.512;13.460;2023-08-08T09:45:24;100352.16;;;21.99;46.49
50550;BME280;36505;52.512;13.460;2023-08-08T09:47:53;100341.78;;;22.17;46.08
50550;BME280;36505;52.512;13.460;2023-08-08T09:50:19;100347.94;;;22.49;45.96
50550;BME280;36505;52.512;13.460;2023-08-08T09:52:46;100340.22;;;22.92;44.95
50550;BME280;36505;52.512;13.460;2023-08-08T09:55:12;100337.22;;;23.27;44.36
50550;BME280;36505;52.512;13.460;2023-08-08T09:57:41;100341.88;;;23.43;43.31
50550;BME280;36505;52.512;13.460;2023-08-08T10:00:08;100314.34;;;23.33;43.00
50550;BME280;36505;52.512;13.460;2023-08-08T10:02:42;100331.06;;;23.12;43.04
50550;BME280;36505;52.512;13.460;2023-08-08T10:05:09;100339.22;;;22.50;44.03
50550;BME280;36505;52.512;13.460;2023-08-08T10:07:35;100360.00;;;21.97;45.50
50550;BME280;36505;52.512;13.460;2023-08-08T10:10:00;100359.63;;;21.21;51.97
50550;BME280;36505;52.512;13.460;2023-08-08T10:12:26;100357.53;;;20.48;56.19
50550;BME280;36505;52.512;13.460;2023-08-08T10:14:52;100349.63;;;20.10;58.63
50550;BME280;36505;52.512;13.460;2023-08-08T10:17:18;100349.31;;;19.90;60.22
50550;BME280;36505;52.512;13.460;2023-08-08T10:20:10;100339.47;;;19.84;62.94
50550;BME280;36505;52.512;13.460;2023-08-08T10:22:46;100344.91;;;19.53;61.82
50550;BME280;36505;52.512;13.460;2023-08-08T10:25:25;100347.44;;;19.27;62.84
50550;BME280;36505;52.512;13.460;2023-08-08T10:28:11;100347.34;;;19.18;63.68
50550;BME280;36505;52.512;13.460;2023-08-08T10:30:51;100343.03;;;19.12;63.54
50550;BME280;36505;52.512;13.460;2023-08-08T10:36:00;100340.50;;;19.02;63.17
50550;BME280;36505;52.512;13.460;2023-08-08T10:38:27;100343.66;;;19.09;63.27
50550;BME280;36505;52.512;13.460;2023-08-08T10:41:03;100332.28;;;19.33;62.02
50550;BME280;36505;52.512;13.460;2023-08-08T10:43:30;100319.00;;;19.44;60.03
50550;BME280;36505;52.512;13.460;2023-08-08T10:46:00;100311.72;;;19.48;58.73
50550;BME280;36505;52.512;13.460;2023-08-08T10:48:26;100309.72;;;19.62;58.74
50550;BME280;36505;52.512;13.460;2023-08-08T10:50:54;100290.44;;;19.65;57.29
50550;BME280;36505;52.512;13.460;2023-08-08T10:53:23;100315.06;;;19.81;56.39
50550;BME280;36505;52.512;13.460;2023-08-08T10:55:57;100319.19;;;19.61;56.17
50550;BME280;36505;52.512;13.460;2023-08-08T10:58:37;100338.28;;;19.26;58.17
50550;BME280;36505;52.512;13.460;2023-08-08T11:01:05;100340.69;;;18.92;62.20
50550;BME280;36505;52.512;13.460;2023-08-08T11:03:34;100325.19;;;18.64;64.72
50550;BME280;36505;52.512;13.460;2023-08-08T11:06:01;100337.06;;;18.50;65.86
50550;BME280;36505;52.512;13.460;2023-08-08T11:08:26;100330.91;;;18.40;65.22
50550;BME280;36505;52.512;13.460;2023-08-08T11:10:52;100332.44;;;18.46;65.66
50550;BME280;36505;52.512;13.460;2023-08-08T11:13:18;100327.63;;;18.51;63.65
50550;BME280;36505;52.512;13.460;2023-08-08T11:15:44;100325.81;;;18.61;64.54
50550;BME280;36505;52.512;13.460;2023-08-08T11:18:10;100320.78;;;18.76;65.09
50550;BME280;36505;52.512;13.460;2023-08-08T11:20:36;100328.59;;;18.88;62.91
50550;BME280;36505;52.512;13.460;2023-08-08T11:23:02;100319.41;;;19.01;62.52
50550;BME280;36505;52.512;13.460;2023-08-08T11:25:31;100321.94;;;19.11;61.44
50550;BME280;36505;52.512;13.460;2023-08-08T11:27:57;100319.97;;;19.25;59.56
50550;BME280;36505;52.512;13.460;2023-08-08T11:30:27;100319.38;;;19.28;57.68
50550;BME280;36505;52.512;13.460;2023-08-08T11:32:53;100359.69;;;19.12;59.21
50550;BME280;36505;52.512;13.460;2023-08-08T11:35:21;100353.44;;;18.79;62.29
50550;BME280;36505;52.512;13.460;2023-08-08T11:37:47;100361.16;;;18.36;63.37
50550;BME280;36505;52.512;13.460;2023-08-08T11:40:14;100376.59;;;18.10;63.25
50550;BME280;36505;52.512;13.460;2023-08-08T11:42:40;100356.97;;;17.93;62.60
50550;BME280;36505;52.512;13.460;2023-08-08T11:45:08;100378.53;;;17.77;62.68
50550;BME280;36505;52.512;13.460;2023-08-08T11:47:34;100364.88;;;17.67;62.98
50550;BME280;36505;52.512;13.460;2023-08-08T11:50:06;100359.16;;;17.58;62.78
50550;BME280;36505;52.512;13.460;2023-08-08T11:52:33;100353.16;;;17.51;63.28
50550;BME280;36505;52.512;13.460;2023-08-08T11:54:59;100338.41;;;17.56;63.51
50550;BME280;36505;52.512;13.460;2023-08-08T11:57:27;100343.66;;;17.76;64.26
50550;BME280;36505;52.512;13.460;2023-08-08T11:59:54;100332.25;;;17.96;62.79
50550;BME280;36505;52.512;13.460;2023-08-08T12:02:19;100333.94;;;18.11;61.41
50550;BME280;36505;52.512;13.460;2023-08-08T12:04:45;100338.16;;;18.22;60.48
50550;BME280;36505;52.512;13.460;2023-08-08T12:07:11;100322.03;;;18.24;61.06
50550;BME280;36505;52.512;13.460;2023-08-08T12:09:37;100317.03;;;18.26;60.64
50550;BME280;36505;52.512;13.460;2023-08-08T12:12:03;100326.28;;;18.35;61.59
50550;BME280;36505;52.512;13.460;2023-08-08T12:14:29;100331.91;;;18.44;61.36
50550;BME280;36505;52.512;13.460;2023-08-08T12:16:55;100326.31;;;18.49;61.89
50550;BME280;36505;52.512;13.460;2023-08-08T12:19:24;100322.06;;;18.51;61.33
50550;BME280;36505;52.512;13.460;2023-08-08T12:21:53;100313.75;;;18.51;60.52
50550;BME280;36505;52.512;13.460;2023-08-08T12:24:18;100323.75;;;18.66;59.93
50550;BME280;36505;52.512;13.460;2023-08-08T12:26:44;100327.53;;;18.70;59.65
50550;BME280;36505;52.512;13.460;2023-08-08T12:29:09;100325.00;;;18.74;58.38
50550;BME280;36505;52.512;13.460;2023-08-08T12:31:35;100313.78;;;18.79;57.96
50550;BME280;36505;52.512;13.460;2023-08-08T12:34:00;100325.50;;;18.89;58.14
50550;BME280;36505;52.512;13.460;2023-08-08T12:36:26;100321.25;;;19.06;58.50
50550;BME280;36505;52.512;13.460;2023-08-08T12:38:51;100312.31;;;19.09;56.70